createdAt,value
2018-06-24T00:02:14.241Z,1.80
2018-06-24T00:04:42.529Z,2.00
2018-06-24T00:07:10.855Z,2.00
2018-06-24T00:09:39.145Z,2.50
2018-06-24T00:12:07.486Z,2.17
2018-06-24T00:14:35.772Z,2.10
2018-06-24T00:17:04.048Z,1.80
2018-06-24T00:19:32.351Z,1.77
2018-06-24T00:22:00.620Z,2.23
2018-06-24T00:24:28.881Z,2.07
2018-06-24T00:26:57.165Z,2.03
2018-06-24T00:29:27.050Z,1.93
2018-06-24T00:31:55.312Z,2.30
2018-06-24T00:34:23.344Z,2.17
2018-06-24T00:36:51.630Z,2.00
2018-06-24T00:39:19.915Z,2.30
2018-06-24T00:41:48.204Z,2.40
2018-06-24T00:44:16.485Z,2.40
2018-06-24T00:46:44.773Z,2.20
2018-06-24T00:49:13.060Z,2.30
2018-06-24T00:51:41.328Z,2.20
2018-06-24T00:54:09.630Z,2.50
2018-06-24T00:56:37.939Z,2.00
2018-06-24T00:59:06.226Z,2.33
2018-06-24T01:01:34.566Z,2.50
2018-06-24T01:04:02.852Z,2.23
2018-06-24T01:06:31.152Z,2.27
2018-06-24T01:08:59.455Z,2.37
2018-06-24T01:11:27.452Z,2.33
2018-06-24T01:13:55.736Z,2.23
2018-06-24T01:16:23.986Z,2.30
2018-06-24T01:18:51.996Z,2.33
2018-06-24T01:21:20.274Z,2.00
2018-06-24T01:23:48.522Z,2.27
2018-06-24T01:26:16.777Z,2.40
2018-06-24T01:28:45.112Z,2.30
2018-06-24T01:31:13.395Z,2.07
2018-06-24T01:33:41.668Z,2.53
2018-06-24T01:36:09.989Z,1.97
2018-06-24T01:38:38.275Z,2.20
2018-06-24T01:41:06.645Z,2.47
2018-06-24T01:43:34.936Z,2.30
2018-06-24T01:46:03.256Z,2.40
2018-06-24T01:48:31.559Z,2.50
2018-06-24T01:50:59.843Z,2.17
2018-06-24T01:53:28.109Z,3.00
2018-06-24T01:55:56.420Z,3.00
2018-06-24T01:58:24.717Z,2.30
2018-06-24T02:00:52.993Z,2.60
2018-06-24T02:03:21.822Z,2.63
2018-06-24T02:05:50.156Z,2.87
2018-06-24T02:08:18.524Z,2.47
2018-06-24T02:10:46.835Z,2.50
2018-06-24T02:13:15.119Z,2.80
2018-06-24T02:15:43.388Z,2.73
2018-06-24T02:18:11.653Z,2.10
2018-06-24T02:20:39.955Z,2.63
2018-06-24T02:23:08.262Z,2.70
2018-06-24T02:28:10.916Z,2.30
2018-06-24T02:30:39.205Z,2.43
2018-06-24T02:33:07.485Z,3.03
2018-06-24T02:35:35.785Z,3.00
2018-06-24T02:38:03.778Z,2.83
2018-06-24T02:40:32.057Z,2.67
2018-06-24T02:43:00.368Z,2.67
2018-06-24T02:45:28.701Z,3.10
2018-06-24T02:47:56.959Z,3.83
2018-06-24T02:50:25.269Z,3.27
2018-06-24T02:52:53.581Z,3.13
2018-06-24T02:55:21.835Z,3.33
2018-06-24T02:57:50.121Z,3.50
2018-06-24T03:00:18.415Z,4.20
2018-06-24T03:02:46.724Z,3.97
2018-06-24T03:05:14.788Z,3.90
2018-06-24T03:07:43.076Z,3.77
2018-06-24T03:10:11.074Z,3.70
2018-06-24T03:12:39.423Z,3.57
2018-06-24T03:15:07.691Z,3.23
2018-06-24T03:17:36.037Z,3.20
2018-06-24T03:20:04.400Z,3.50
2018-06-24T03:22:32.698Z,3.47
2018-06-24T03:25:00.967Z,3.23
2018-06-24T03:27:29.282Z,3.33
2018-06-24T03:29:57.290Z,2.83
2018-06-24T03:32:25.565Z,2.93
2018-06-24T03:34:53.968Z,2.80
2018-06-24T03:37:22.239Z,3.22
2018-06-24T03:39:50.535Z,2.70
2018-06-24T03:42:18.848Z,2.97
2018-06-24T03:44:47.160Z,2.42
2018-06-24T03:47:15.455Z,2.77
2018-06-24T03:49:43.772Z,3.10
2018-06-24T03:52:12.085Z,2.80
2018-06-24T03:54:40.407Z,2.58
2018-06-24T03:57:08.732Z,2.80
2018-06-24T03:59:37.092Z,2.70
2018-06-24T04:02:05.648Z,2.53
2018-06-24T04:04:33.972Z,2.95
2018-06-24T04:07:02.257Z,3.00
2018-06-24T04:09:30.624Z,2.67
2018-06-24T04:11:58.925Z,2.70
2018-06-24T04:14:27.168Z,2.70
2018-06-24T04:16:55.573Z,3.00
2018-06-24T04:19:23.795Z,2.67
2018-06-24T04:21:52.047Z,2.77
2018-06-24T04:24:20.335Z,3.20
2018-06-24T04:26:48.584Z,2.77
2018-06-24T04:29:17.471Z,2.93
2018-06-24T04:31:45.789Z,2.80
2018-06-24T04:34:14.111Z,2.87
2018-06-24T04:36:42.424Z,3.07
2018-06-24T04:39:11.211Z,2.90
2018-06-24T04:41:39.661Z,3.23
2018-06-24T04:44:08.028Z,2.90
2018-06-24T04:46:36.327Z,3.27
2018-06-24T04:49:04.623Z,2.77
2018-06-24T04:51:32.918Z,2.97
2018-06-24T04:54:01.168Z,3.03
2018-06-24T04:56:29.468Z,3.00
2018-06-24T04:58:57.811Z,3.47
2018-06-24T05:01:26.104Z,3.13
2018-06-24T05:03:54.572Z,2.97
2018-06-24T05:06:22.993Z,3.20
2018-06-24T05:08:51.175Z,3.80
2018-06-24T05:11:19.443Z,3.33
2018-06-24T05:13:47.787Z,4.10
2018-06-24T05:16:16.020Z,3.20
2018-06-24T05:18:44.008Z,4.00
2018-06-24T05:21:12.287Z,3.90
2018-06-24T05:23:40.560Z,4.07
2018-06-24T05:26:08.946Z,4.37
2018-06-24T05:28:37.200Z,4.23
2018-06-24T05:31:05.472Z,4.60
2018-06-24T05:33:33.764Z,4.03
2018-06-24T05:36:02.045Z,4.23
2018-06-24T05:38:30.367Z,5.23
2018-06-24T05:40:58.600Z,5.07
2018-06-24T05:43:26.903Z,5.30
2018-06-24T05:45:55.217Z,5.50
2018-06-24T05:48:23.579Z,4.80
2018-06-24T05:50:51.924Z,5.70
2018-06-24T05:53:20.201Z,5.60
2018-06-24T05:55:48.690Z,5.17
2018-06-24T05:58:17.583Z,5.67
2018-06-24T06:00:45.848Z,5.23
2018-06-24T06:03:14.113Z,4.50
2018-06-24T06:05:42.399Z,5.87
2018-06-24T06:08:10.696Z,6.07
2018-06-24T06:10:38.964Z,5.33
2018-06-24T06:13:07.216Z,6.13
2018-06-24T06:15:35.607Z,5.93
2018-06-24T06:18:03.867Z,6.57
2018-06-24T06:20:32.185Z,6.33
2018-06-24T06:23:00.435Z,6.67
2018-06-24T06:25:28.707Z,6.30
2018-06-24T06:27:56.779Z,6.60
2018-06-24T06:30:25.150Z,6.20
2018-06-24T06:32:53.428Z,6.63
2018-06-24T06:35:21.417Z,6.30
2018-06-24T06:37:49.655Z,7.20
2018-06-24T06:40:17.635Z,7.03
2018-06-24T06:42:45.683Z,6.03
2018-06-24T06:45:14.053Z,6.97
2018-06-24T06:47:42.288Z,6.80
2018-06-24T06:50:10.558Z,6.93
2018-06-24T06:52:38.803Z,7.30
2018-06-24T06:55:07.101Z,6.47
2018-06-24T06:57:35.377Z,7.00
2018-06-24T07:00:03.800Z,7.10
2018-06-24T07:02:32.062Z,7.30
2018-06-24T07:05:00.348Z,7.03
2018-06-24T07:07:28.602Z,7.40
2018-06-24T07:09:56.862Z,7.23
2018-06-24T07:12:25.136Z,7.47
2018-06-24T07:14:53.407Z,7.27
2018-06-24T07:17:21.440Z,7.20
2018-06-24T07:19:49.731Z,8.17
2018-06-24T07:22:18.033Z,7.37
2018-06-24T07:24:46.332Z,7.07
2018-06-24T07:27:14.632Z,8.20
2018-06-24T07:29:43.002Z,7.33
2018-06-24T07:32:11.272Z,6.93
2018-06-24T07:34:39.581Z,5.93
2018-06-24T07:37:07.862Z,6.17
2018-06-24T07:39:36.136Z,5.53
2018-06-24T07:42:04.445Z,5.43
2018-06-24T07:44:32.426Z,5.33
2018-06-24T07:47:00.664Z,4.80
2018-06-24T07:49:28.955Z,4.23
2018-06-24T07:51:57.302Z,4.00
2018-06-24T07:54:25.702Z,4.23
2018-06-24T07:56:53.980Z,3.57
2018-06-24T07:59:23.608Z,4.13
2018-06-24T08:01:51.619Z,4.23
2018-06-24T08:04:19.932Z,4.17
2018-06-24T08:06:48.284Z,4.60
2018-06-24T08:09:16.561Z,4.50
2018-06-24T08:11:44.841Z,4.00
2018-06-24T08:14:13.132Z,3.83
2018-06-24T08:16:41.428Z,3.47
2018-06-24T08:19:09.679Z,4.20
2018-06-24T08:21:38.003Z,3.83
2018-06-24T08:24:06.013Z,3.90
2018-06-24T08:26:34.392Z,3.83
2018-06-24T08:29:02.695Z,3.67
2018-06-24T08:31:30.977Z,3.63
2018-06-24T08:33:59.230Z,4.50
2018-06-24T08:36:27.568Z,3.50
2018-06-24T08:38:55.807Z,3.90
2018-06-24T08:41:24.055Z,3.63
2018-06-24T08:43:52.351Z,3.70
2018-06-24T08:46:20.606Z,3.90
2018-06-24T08:48:48.883Z,3.27
2018-06-24T08:51:17.177Z,3.77
2018-06-24T08:53:45.484Z,3.47
2018-06-24T08:56:13.776Z,3.53
2018-06-24T08:58:42.052Z,3.80
2018-06-24T09:01:10.327Z,4.13
2018-06-24T09:03:38.636Z,3.30
2018-06-24T09:06:06.914Z,3.80
2018-06-24T09:08:35.272Z,3.63
2018-06-24T09:11:03.560Z,4.30
2018-06-24T09:13:31.856Z,3.80
2018-06-24T09:16:00.236Z,4.67
2018-06-24T09:18:28.468Z,5.23
2018-06-24T09:20:56.484Z,3.77
2018-06-24T09:23:24.780Z,4.60
2018-06-24T09:25:53.118Z,4.57
2018-06-24T09:28:21.413Z,4.30
2018-06-24T09:30:49.713Z,3.67
2018-06-24T09:33:17.992Z,3.80
2018-06-24T09:35:46.260Z,3.90
2018-06-24T09:38:14.559Z,3.47
2018-06-24T09:40:42.868Z,4.10
2018-06-24T09:43:11.136Z,4.10
2018-06-24T09:45:39.396Z,4.07
2018-06-24T09:48:07.383Z,3.87
2018-06-24T09:50:35.707Z,3.97
2018-06-24T09:53:04.161Z,3.60
2018-06-24T09:55:33.065Z,3.77
2018-06-24T09:58:01.347Z,3.90
2018-06-24T10:00:29.679Z,3.53
2018-06-24T10:02:57.969Z,3.03
2018-06-24T10:05:26.285Z,3.13
2018-06-24T10:07:54.650Z,3.03
2018-06-24T10:10:23.172Z,3.10
2018-06-24T10:12:51.476Z,2.87
2018-06-24T10:15:19.695Z,3.37
2018-06-24T10:17:47.997Z,3.13
2018-06-24T10:20:16.281Z,2.90
2018-06-24T10:22:44.559Z,2.40
2018-06-24T10:25:12.824Z,1.93
2018-06-24T10:27:41.104Z,2.50
2018-06-24T10:30:09.341Z,2.20
2018-06-24T10:32:37.658Z,2.00
2018-06-24T10:35:05.953Z,1.90
2018-06-24T10:37:33.975Z,1.97
2018-06-24T10:40:02.280Z,2.83
2018-06-24T10:42:30.575Z,2.07
2018-06-24T10:44:58.852Z,2.40
2018-06-24T10:47:27.204Z,2.53
2018-06-24T10:49:55.478Z,2.87
2018-06-24T10:52:23.739Z,1.87
2018-06-24T10:54:51.999Z,2.50
2018-06-24T10:57:20.306Z,2.97
2018-06-24T10:59:48.609Z,2.50
2018-06-24T11:02:16.986Z,2.43
2018-06-24T11:04:45.302Z,2.73
2018-06-24T11:07:13.577Z,2.60
2018-06-24T11:09:41.891Z,3.47
2018-06-24T11:12:10.192Z,2.80
2018-06-24T11:14:38.480Z,2.70
2018-06-24T11:17:06.760Z,2.40
2018-06-24T11:19:34.754Z,2.20
2018-06-24T11:22:03.049Z,2.40
2018-06-24T11:24:31.312Z,2.67
2018-06-24T11:26:59.644Z,2.13
2018-06-24T11:29:28.913Z,2.17
2018-06-24T11:31:57.332Z,1.83
2018-06-24T11:34:25.315Z,2.17
2018-06-24T11:36:53.627Z,2.40
2018-06-24T11:39:21.916Z,2.67
2018-06-24T11:41:50.248Z,2.57
2018-06-24T11:44:18.564Z,2.63
2018-06-24T11:46:46.883Z,2.27
2018-06-24T11:49:15.241Z,1.93
2018-06-24T11:51:43.523Z,2.30
2018-06-24T11:54:11.796Z,2.30
2018-06-24T11:56:40.096Z,2.20
2018-06-24T11:59:08.385Z,2.00
2018-06-24T12:01:36.681Z,2.00
2018-06-24T12:04:05.045Z,1.93
2018-06-24T12:06:33.307Z,1.90
2018-06-24T12:09:01.670Z,2.00
2018-06-24T12:11:29.952Z,1.83
2018-06-24T12:13:58.236Z,2.10
2018-06-24T12:16:26.241Z,2.70
2018-06-24T12:18:54.500Z,2.20
2018-06-24T12:21:22.816Z,2.50
2018-06-24T12:23:51.083Z,2.10
2018-06-24T12:26:19.418Z,2.47
2018-06-24T12:28:47.402Z,2.37
2018-06-24T12:31:15.705Z,2.37
2018-06-24T12:33:43.983Z,1.87
2018-06-24T12:36:12.327Z,2.37
2018-06-24T12:38:40.564Z,2.30
2018-06-24T12:41:08.867Z,1.90
2018-06-24T12:43:36.860Z,2.27
2018-06-24T12:46:05.229Z,1.70
2018-06-24T12:48:33.566Z,1.63
2018-06-24T12:51:01.915Z,1.80
2018-06-24T12:53:30.228Z,1.80
2018-06-24T12:55:58.521Z,1.70
2018-06-24T12:58:26.831Z,2.27
2018-06-24T13:00:55.484Z,1.20
2018-06-24T13:03:23.468Z,1.80
2018-06-24T13:05:51.737Z,1.40
2018-06-24T13:08:20.058Z,1.40
2018-06-24T13:10:48.366Z,1.87
2018-06-24T13:13:16.743Z,1.40
2018-06-24T13:15:45.033Z,1.30
2018-06-24T13:18:13.372Z,1.60
2018-06-24T13:20:41.686Z,1.40
2018-06-24T13:23:10.008Z,1.20
2018-06-24T13:25:38.294Z,1.30
2018-06-24T13:28:06.664Z,1.30
2018-06-24T13:30:34.981Z,1.50
2018-06-24T13:33:03.295Z,1.53
2018-06-24T13:35:31.600Z,1.30
2018-06-24T13:37:59.887Z,1.10
2018-06-24T13:40:28.241Z,1.63
2018-06-24T13:42:56.456Z,1.40
2018-06-24T13:45:24.744Z,1.03
2018-06-24T13:47:53.053Z,1.43
2018-06-24T13:50:21.097Z,1.23
2018-06-24T13:52:49.384Z,1.60
2018-06-24T13:55:17.648Z,1.23
2018-06-24T13:57:45.893Z,1.50
2018-06-24T14:00:14.251Z,1.30
2018-06-24T14:02:42.535Z,1.20
2018-06-24T14:05:10.806Z,1.00
2018-06-24T14:07:39.133Z,1.00
2018-06-24T14:10:07.444Z,1.20
2018-06-24T14:12:35.887Z,1.40
2018-06-24T14:15:04.589Z,1.10
2018-06-24T14:17:32.876Z,1.33
2018-06-24T14:20:01.204Z,1.30
2018-06-24T14:22:29.527Z,1.50
2018-06-24T14:24:57.821Z,1.23
2018-06-24T14:27:25.823Z,1.27
2018-06-24T14:29:54.176Z,1.30
2018-06-24T14:32:22.467Z,1.40
2018-06-24T14:34:50.756Z,1.27
2018-06-24T14:37:19.012Z,1.17
2018-06-24T14:39:47.291Z,1.10
2018-06-24T14:42:15.574Z,0.97
2018-06-24T14:44:43.869Z,1.13
2018-06-24T14:47:12.164Z,1.50
2018-06-24T14:49:40.532Z,1.57
2018-06-24T14:52:08.854Z,1.90
2018-06-24T14:54:37.142Z,1.50
2018-06-24T14:57:05.165Z,2.13
2018-06-24T14:59:34.026Z,1.53
2018-06-24T15:02:02.276Z,1.30
2018-06-24T15:04:30.305Z,1.23
2018-06-24T15:06:58.672Z,1.80
2018-06-24T15:09:26.982Z,1.40
2018-06-24T15:11:55.266Z,1.43
2018-06-24T15:14:23.549Z,1.63
2018-06-24T15:16:51.792Z,1.77
2018-06-24T15:19:20.100Z,1.40
2018-06-24T15:21:48.403Z,1.53
2018-06-24T15:24:16.676Z,1.30
2018-06-24T15:26:44.664Z,1.70
2018-06-24T15:29:12.941Z,1.50
2018-06-24T15:31:41.220Z,1.60
2018-06-24T15:34:09.507Z,1.97
2018-06-24T15:36:37.777Z,1.83
2018-06-24T15:39:08.123Z,2.07
2018-06-24T15:41:36.433Z,2.30
2018-06-24T15:44:04.688Z,2.00
2018-06-24T15:46:32.987Z,2.67
2018-06-24T15:49:01.309Z,2.40
2018-06-24T15:51:29.753Z,2.50
2018-06-24T15:53:57.897Z,2.53
2018-06-24T15:56:26.233Z,2.50
2018-06-24T15:58:54.499Z,2.70
2018-06-24T16:01:22.768Z,2.20
2018-06-24T16:03:50.778Z,2.10
2018-06-24T16:06:19.091Z,2.13
2018-06-24T16:08:47.349Z,2.13
2018-06-24T16:11:15.676Z,2.20
2018-06-24T16:13:43.668Z,2.70
2018-06-24T16:16:12.044Z,2.10
2018-06-24T16:18:40.471Z,2.53
2018-06-24T16:21:08.955Z,2.43
2018-06-24T16:23:36.751Z,2.30
2018-06-24T16:26:05.049Z,2.00
2018-06-24T16:28:33.356Z,1.97
2018-06-24T16:31:01.669Z,2.27
2018-06-24T16:33:29.978Z,2.50
2018-06-24T16:35:58.246Z,2.57
2018-06-24T16:38:26.572Z,2.30
2018-06-24T16:40:54.904Z,2.50
2018-06-24T16:43:22.957Z,2.93
2018-06-24T16:45:51.249Z,2.47
2018-06-24T16:48:19.524Z,2.63
2018-06-24T16:50:47.532Z,2.97
2018-06-24T16:53:15.848Z,2.50
2018-06-24T16:55:44.155Z,2.07
2018-06-24T16:58:12.518Z,2.83
2018-06-24T17:00:40.715Z,2.63
2018-06-24T17:03:09.002Z,2.23
2018-06-24T17:05:37.311Z,2.77
2018-06-24T17:08:06.199Z,2.30
2018-06-24T17:10:34.499Z,2.23
2018-06-24T17:13:02.726Z,2.17
2018-06-24T17:15:30.997Z,2.03
2018-06-24T17:17:59.384Z,2.10
2018-06-24T17:20:34.108Z,2.13
2018-06-24T17:23:02.507Z,2.10
2018-06-24T17:25:30.800Z,2.00
2018-06-24T17:27:59.050Z,1.70
2018-06-24T17:30:27.067Z,1.93
2018-06-24T17:32:55.420Z,1.63
2018-06-24T17:35:23.676Z,2.47
2018-06-24T17:37:51.731Z,2.60
2018-06-24T17:40:20.045Z,2.50
2018-06-24T17:42:48.307Z,2.43
2018-06-24T17:45:16.315Z,2.20
2018-06-24T17:47:44.623Z,4.30
2018-06-24T17:50:12.900Z,3.73
2018-06-24T17:52:41.223Z,4.67
2018-06-24T17:55:09.208Z,3.70
2018-06-24T17:57:37.651Z,2.73
2018-06-24T18:00:05.957Z,2.10
2018-06-24T18:02:33.965Z,2.20
2018-06-24T18:05:02.243Z,1.90
2018-06-24T18:07:30.536Z,2.03
2018-06-24T18:09:58.808Z,1.60
2018-06-24T18:12:27.112Z,1.90
2018-06-24T18:14:55.419Z,1.73
2018-06-24T18:17:23.711Z,1.50
2018-06-24T18:19:52.004Z,1.70
2018-06-24T18:22:20.583Z,2.27
2018-06-24T18:24:48.846Z,2.00
2018-06-24T18:27:17.140Z,1.70
2018-06-24T18:29:45.846Z,1.90
2018-06-24T18:32:14.160Z,2.00
2018-06-24T18:34:42.428Z,1.83
2018-06-24T18:37:10.718Z,2.60
2018-06-24T18:39:38.955Z,2.03
2018-06-24T18:42:07.227Z,2.30
2018-06-24T18:44:35.532Z,1.93
2018-06-24T18:47:03.812Z,1.90
2018-06-24T18:49:32.127Z,2.00
2018-06-24T18:52:00.526Z,2.13
2018-06-24T18:54:28.831Z,2.23
2018-06-24T18:56:57.197Z,1.97
2018-06-24T18:59:26.164Z,1.80
2018-06-24T19:01:54.507Z,2.23
2018-06-24T19:04:22.776Z,1.73
2018-06-24T19:06:51.085Z,2.00
2018-06-24T19:09:19.424Z,1.70
2018-06-24T19:11:47.721Z,1.60
2018-06-24T19:14:16.040Z,1.70
2018-06-24T19:16:44.327Z,2.00
2018-06-24T19:19:12.624Z,1.70
2018-06-24T19:21:40.959Z,1.80
2018-06-24T19:24:09.245Z,1.67
2018-06-24T19:26:37.532Z,2.20
2018-06-24T19:29:05.794Z,1.70
2018-06-24T19:31:34.432Z,1.90
2018-06-24T19:34:02.712Z,1.73
2018-06-24T19:36:30.728Z,1.80
2018-06-24T19:38:59.939Z,1.57
2018-06-24T19:41:28.286Z,1.80
2018-06-24T19:43:56.607Z,1.77
2018-06-24T19:46:24.912Z,1.83
2018-06-24T19:48:53.191Z,1.97
2018-06-24T19:51:21.482Z,2.10
2018-06-24T19:53:49.820Z,1.97
2018-06-24T19:56:18.156Z,2.10
2018-06-24T19:58:46.465Z,1.70
2018-06-24T20:01:14.758Z,2.30
2018-06-24T20:03:43.026Z,1.90
2018-06-24T20:06:11.301Z,2.30
2018-06-24T20:08:39.671Z,2.17
2018-06-24T20:11:07.957Z,2.00
2018-06-24T20:13:36.228Z,2.27
2018-06-24T20:16:04.553Z,2.40
2018-06-24T20:18:32.571Z,2.40
2018-06-24T20:21:00.886Z,2.00
2018-06-24T20:23:29.121Z,2.00
2018-06-24T20:25:57.400Z,2.40
2018-06-24T20:28:25.697Z,2.13
2018-06-24T20:30:53.926Z,2.33
2018-06-24T20:33:22.209Z,2.07
2018-06-24T20:35:50.509Z,1.87
2018-06-24T20:38:18.797Z,2.07
2018-06-24T20:40:47.089Z,2.07
2018-06-24T20:43:15.371Z,1.77
2018-06-24T20:45:43.642Z,2.27
2018-06-24T20:48:11.916Z,2.10
2018-06-24T20:50:40.225Z,2.17
2018-06-24T20:53:09.860Z,1.80
2018-06-24T20:55:38.240Z,1.87
2018-06-24T20:58:06.549Z,1.77
2018-06-24T21:00:34.880Z,1.90
2018-06-24T21:03:03.143Z,2.03
2018-06-24T21:05:31.470Z,2.30
2018-06-24T21:07:59.790Z,2.83
2018-06-24T21:10:28.065Z,2.47
2018-06-24T21:12:56.337Z,2.50
2018-06-24T21:15:24.617Z,2.23
2018-06-24T21:17:52.640Z,3.00
2018-06-24T21:20:20.911Z,2.97
2018-06-24T21:22:49.226Z,2.37
2018-06-24T21:25:17.491Z,2.57
2018-06-24T21:27:45.784Z,2.47
2018-06-24T21:30:14.044Z,2.30
2018-06-24T21:32:42.331Z,2.00
2018-06-24T21:35:10.636Z,1.83
2018-06-24T21:37:38.930Z,1.90
2018-06-24T21:40:07.196Z,1.70
2018-06-24T21:42:35.477Z,2.20
2018-06-24T21:45:03.765Z,2.20
2018-06-24T21:47:32.032Z,2.10
2018-06-24T21:50:00.387Z,2.00
2018-06-24T21:52:28.402Z,1.70
2018-06-24T21:54:56.726Z,2.40
2018-06-24T21:57:25.000Z,2.00
2018-06-24T21:59:53.527Z,2.20
2018-06-24T22:02:21.771Z,2.03
2018-06-24T22:07:24.500Z,1.80
2018-06-24T22:09:59.121Z,2.10
2018-06-24T22:12:27.381Z,1.80
2018-06-24T22:14:55.672Z,2.17
2018-06-24T22:17:23.672Z,2.00
2018-06-24T22:19:52.016Z,1.97
2018-06-24T22:22:20.284Z,2.40
2018-06-24T22:24:48.597Z,2.30
2018-06-24T22:27:16.907Z,2.23
2018-06-24T22:29:46.428Z,2.07
2018-06-24T22:32:14.729Z,1.90
2018-06-24T22:34:42.715Z,2.27
2018-06-24T22:37:11.018Z,2.00
2018-06-24T22:39:40.310Z,2.27
2018-06-24T22:42:08.656Z,2.60
2018-06-24T22:44:36.679Z,2.27
2018-06-24T22:47:05.144Z,2.17
2018-06-24T22:49:33.461Z,2.27
2018-06-24T22:52:01.785Z,2.00
2018-06-24T22:54:30.073Z,1.93
2018-06-24T22:56:58.339Z,2.47
2018-06-24T22:59:38.009Z,2.00
2018-06-24T23:02:06.377Z,2.07
2018-06-24T23:04:34.617Z,2.40
2018-06-24T23:07:02.882Z,2.00
2018-06-24T23:09:31.138Z,1.87
2018-06-24T23:11:59.424Z,2.13
2018-06-24T23:14:27.699Z,2.40
2018-06-24T23:16:55.933Z,2.10
2018-06-24T23:19:24.229Z,2.10
2018-06-24T23:21:52.439Z,2.20
2018-06-24T23:24:20.504Z,2.00
2018-06-24T23:26:48.805Z,2.30
2018-06-24T23:29:17.195Z,2.03
2018-06-24T23:31:45.486Z,1.93
2018-06-24T23:34:13.762Z,2.33
2018-06-24T23:36:42.037Z,2.47
2018-06-24T23:39:10.541Z,1.80
2018-06-24T23:41:38.831Z,2.10
2018-06-24T23:44:07.152Z,2.17
2018-06-24T23:46:35.433Z,2.17
2018-06-24T23:49:03.755Z,2.53
2018-06-24T23:51:32.056Z,3.00
2018-06-24T23:54:00.353Z,3.23
2018-06-24T23:56:28.342Z,2.90
2018-06-24T23:58:56.607Z,3.20
